Philadelphia International Airport
KPHL : now visible

Airfield :











YOU CAN JOIN US ON...

 
LOGIN :

Register | Disclaimer

   EN    FR    IT 

 









Legend :    VFR   Marginal VFR   IFR   Intensive IFR   Very Intensive IFR
Visi :
Ceiling :
>= 8 km
>= 3000ft
5 to 8 km
1000 to 3000 ft
1500m to 5 km
500 to 1000 ft
800 to 1500m
200 to 500 ft
< 800m
< 200 ft
Symbols :   Thunderstorms  Fog  Heavy snow  Heavy precipitations  Wind > 20 kt






- Airport Elevation : 36 ft
- IATA code : PHL


KPHL - Philadelphia International

CURRENT METAR :
  • 211954Z 32020G31KT 10SM BKN030 BKN036 OVC100 10/03 A2970 RMK AO2 PK WND 31032/1943 SLP055 T01000028

EXPIRED METARs :
  • 211854Z 30015G25KT 10SM SCT050 BKN075 OVC100 11/06 A2967 RMK AO2 PK WND 29035/1758 LTG DSNT SE RAE30 TSE30 SLP048 P0000 T01060056
  • 211831Z 30021G35KT 10SM SCT041 SCT055TCU BKN090 OVC250 12/06 A2964 RMK AO2 PK WND 29035/1758 LTG DSNT S RAE30 TSE30 TCU W P0000 T01220056
  • 211812Z 31023G32KT 10SM -TSRA FEW021 BKN050CB BKN085 BKN150 13/08 A2962 RMK AO2 PK WND 29035/1758 LTG DSNT S OCNL LTGICCG VC S TS VC S MOV NE P0000 T01330078
  • 211754Z 30027G36KT 6SM -TSRA BKN050CB BKN120 BKN150 14/11 A2961 RMK AO2 PK WND 29045/1736 WSHFT 1732 LTG DSNT E AND SW RAB36 TSB24 SLP025 OCNL LTGICCG OHD TS OHD MOV NE P0001 60001 T01440106 10228 20144 55000
  • 211743Z 29023G45KT 6SM -TSRA BKN050CB BKN120 BKN150 17/08 A2961 RMK AO2 PK WND 29045/1736 LTG DSNT E RAB36 TSB24 PRESRR OCNL LTGICCG OHD TS OHD MOV NE P0000 T01670083
  • 211738Z 29033G45KT 6SM -TSRA BKN050CB BKN120 BKN150 19/08 A2959 RMK AO2 PK WND 29045/1736 LTG DSNT E AND W RAB36 TSB24 OCNL LTGIC VC W TS VC W MOV NE P0000 T01940083

TAF KPHL
Valid from the 21 at 19:00 until the 23 at 00:00 UTC


211830Z 2119/2224 31020G30KT 6SM -SHRA VCTS SCT035CB BKN060
FM211930 31020G30KT P6SM SCT025 BKN050
FM220300 30015G22KT P6SM SCT050
FM221400 29018G31KT P6SM BKN080
KZDC FIR / North America



MET'MAP, your aeronautical weather chart ! - Copyright ORBIFLY December 2007 - Disclaimer

ORBIFLY MET'MAP TEAM :

Programming & Development : Alexandra Zaïnal
Concept & original design : Baudouin d'Aumeries
Assistance for programming : Marc-Olivier Méhu
Technical & hardware support : Manuel Goepfert

Contact : metmap@orbifly.com




SOURCES & CREDITS :

   NOAA       Earth
Advisory